Main page
METAR-TAF:

METAR-TAF

Airports :

Valence, France

Valence-Chabeuil Airport

latitude: 44-54-58N, longitude: 4-58-06E, elevation: 160 m

Current weather observation

The report was made 10 hours and 10 minutes ago, at 18:00 UTC
Wind 16 kt from the North
Temperature 5°C
Humidity 81%
Pressure 1022 hPa
Visibility 10 km or more
Broken clouds at a height of 2300 ft
Broken clouds at a height of 2800 ft

METAR: LFLU 171800Z AUTO 36016KT 9999 BKN023 BKN028 05/02 Q1022

Time: 05:10 (04:10 UTC)


TAF: missing

Weather observations and forecasts of more than 4000 airports (METAR and TAF reports).

The available stations are represented by yellow and red dots on the map.

Hover mouse over dot to see the name of the station.

Then click to see weather observations and forecasts.

To change the map : click on the green buttons with a black cross to zoom in, on the green button with a dash to zoom out, or on the green arrows for adjacent maps.


METAR-TAF: